Severn, Virginia
Current Conditions -  °F | °C
As of 5:54 AM on Friday 31 Oct 2014 (Local Time) from KPHF Reporting Station
Scattered Clouds Scattered Clouds  
Wind Chill: 46°   Ceiling: Unl
Heat Index: 49°   Visibility: 8mi
Dew Point: 44°   Wind: 7mph
Humidity: 83%   Direction: 350°N
Pressure: 29.97"   Gusts: NA
Location:  37.29°N, 76.42°W
Report Text: KPHF 310954Z 35006KT 8SM SCT050 09/07 A2997 RMK AO2 SLP147 T00940067
Loading
Personal Weather Stations






























Interactive Weather Map
Tropical Storm Tracking
New forecast layout! Learn more

10-Day Weather Forecast

Advertisements
Track Severe Weather on mobile